Contrarian — 2FAJ3 — position and weather

sailwx.info

Track history (hours):
 
Tides and Currents Weather Stations Pressure Air Temp Water Temp Dewpoint Dewpoint Depression Visibility Wind Speed Wind Dir Waves Ship Positions

Contrarian

Last reported at 2015-Jun-21 15:19 UTC. Time now 2015-Jul-04 20:44 UTC.
Position N 50°47' W 001°11'.
Warning: this ship's position is 13 days out of date.

Length 20 m.

Type: Sailing vessel. MMSI: 235089609.

Date/timePositionNaut miles runAvg speedWind from/ knotsBaromVisibWave heightAir tempDewpointWater temp
2015-Jun-21 15:19N 50°47' W 001°11'8 8.9
2015-Jun-21 14:26N 50°43' W 001°00'83 7.7
2015-Jun-21 03:34N 49°30' E 000°02'2 0.2
2015-Jun-20 14:31N 49°29' E 000°06'2 2.4
2015-Jun-20 13:33N 49°28' E 000°03'5 5.4
2015-Jun-20 12:33N 49°26' E 000°11'0 0.0
2015-Jun-18 10:33N 49°26' E 000°11'6 5.4
2015-Jun-18 09:32N 49°25' E 000°02'3 2.9
2015-Jun-18 08:28N 49°22' E 000°04'0 0.0
2015-Jun-18 07:28N 49°22' E 000°04'0 0.0
2015-Jun-17 20:23N 49°22' E 000°04'0 0.6
2015-Jun-17 19:33N 49°22' E 000°04'1 1.5
2015-Jun-17 18:34N 49°24' E 000°03'2 1.9
2015-Jun-17 17:25N 49°24' W 000°00'2 2.1
2015-Jun-17 16:33N 49°24' W 000°03'  
Track history (hours):
 
Tides and Currents Weather Stations Pressure Air Temp Water Temp Dewpoint Dewpoint Depression Visibility Wind Speed Wind Dir Waves Ship Positions

Contrarian

Last reported at 2015-Jun-21 15:19 UTC. Time now 2015-Jul-04 20:44 UTC.
Position N 50°47' W 001°11'.
Warning: this ship's position is 13 days out of date.

Length 20 m.

Type: Sailing vessel. MMSI: 235089609.

Date/timePositionNaut miles runAvg speedWind from/ knotsBaromVisibWave heightAir tempDewpointWater temp
2015-Jun-21 15:19N 50°47' W 001°11'8 8.9
2015-Jun-21 14:26N 50°43' W 001°00'83 7.7
2015-Jun-21 03:34N 49°30' E 000°02'2 0.2
2015-Jun-20 14:31N 49°29' E 000°06'2 2.4
2015-Jun-20 13:33N 49°28' E 000°03'5 5.4
2015-Jun-20 12:33N 49°26' E 000°11'0 0.0
2015-Jun-18 10:33N 49°26' E 000°11'6 5.4
2015-Jun-18 09:32N 49°25' E 000°02'3 2.9
2015-Jun-18 08:28N 49°22' E 000°04'0 0.0
2015-Jun-18 07:28N 49°22' E 000°04'0 0.0
2015-Jun-17 20:23N 49°22' E 000°04'0 0.6
2015-Jun-17 19:33N 49°22' E 000°04'1 1.5
2015-Jun-17 18:34N 49°24' E 000°03'2 1.9
2015-Jun-17 17:25N 49°24' W 000°00'2 2.1
2015-Jun-17 16:33N 49°24' W 000°03'  

Dump ship's entire track history